sensor_id;sensor_type;location;lat;lon;timestamp;P1;durP1;ratioP1;P2;durP2;ratioP2
19869;SDS011;10097;50.862;4.696;2023-08-01T00:01:27;2.95;;;1.10;;
19869;SDS011;10097;50.862;4.696;2023-08-01T00:03:54;2.38;;;1.20;;
19869;SDS011;10097;50.862;4.696;2023-08-01T00:06:19;3.88;;;1.40;;
19869;SDS011;10097;50.862;4.696;2023-08-01T00:08:47;2.85;;;1.27;;
19869;SDS011;10097;50.862;4.696;2023-08-01T00:11:13;3.67;;;0.93;;
19869;SDS011;10097;50.862;4.696;2023-08-01T00:13:39;2.92;;;1.33;;
19869;SDS011;10097;50.862;4.696;2023-08-01T00:16:05;2.42;;;1.20;;
19869;SDS011;10097;50.862;4.696;2023-08-01T00:18:31;6.85;;;1.35;;
19869;SDS011;10097;50.862;4.696;2023-08-01T00:20:57;3.22;;;1.48;;
19869;SDS011;10097;50.862;4.696;2023-08-01T00:23:23;10.30;;;1.67;;
19869;SDS011;10097;50.862;4.696;2023-08-01T00:25:49;3.42;;;1.50;;
19869;SDS011;10097;50.862;4.696;2023-08-01T00:28:19;6.63;;;1.50;;
19869;SDS011;10097;50.862;4.696;2023-08-01T00:30:48;7.18;;;1.88;;
19869;SDS011;10097;50.862;4.696;2023-08-01T00:33:14;3.47;;;1.50;;
19869;SDS011;10097;50.862;4.696;2023-08-01T00:35:40;4.10;;;1.42;;
19869;SDS011;10097;50.862;4.696;2023-08-01T00:38:06;10.30;;;2.00;;
19869;SDS011;10097;50.862;4.696;2023-08-01T00:40:31;8.43;;;1.65;;
19869;SDS011;10097;50.862;4.696;2023-08-01T00:42:57;8.45;;;1.50;;
19869;SDS011;10097;50.862;4.696;2023-08-01T00:45:24;5.90;;;1.80;;
19869;SDS011;10097;50.862;4.696;2023-08-01T00:47:54;5.53;;;1.75;;
19869;SDS011;10097;50.862;4.696;2023-08-01T00:50:20;3.90;;;1.92;;
19869;SDS011;10097;50.862;4.696;2023-08-01T00:52:47;6.35;;;1.90;;
19869;SDS011;10097;50.862;4.696;2023-08-01T00:55:14;7.25;;;2.10;;
19869;SDS011;10097;50.862;4.696;2023-08-01T00:57:40;6.30;;;1.90;;
19869;SDS011;10097;50.862;4.696;2023-08-01T01:00:06;6.10;;;2.03;;
19869;SDS011;10097;50.862;4.696;2023-08-01T01:02:33;5.65;;;1.80;;
19869;SDS011;10097;50.862;4.696;2023-08-01T01:04:59;6.65;;;2.20;;
19869;SDS011;10097;50.862;4.696;2023-08-01T01:07:25;3.60;;;1.75;;
19869;SDS011;10097;50.862;4.696;2023-08-01T01:09:52;8.50;;;2.45;;
19869;SDS011;10097;50.862;4.696;2023-08-01T01:12:17;6.88;;;2.05;;
19869;SDS011;10097;50.862;4.696;2023-08-01T01:14:43;7.43;;;2.60;;
19869;SDS011;10097;50.862;4.696;2023-08-01T01:17:09;7.35;;;2.10;;
19869;SDS011;10097;50.862;4.696;2023-08-01T01:19:34;10.43;;;2.50;;
19869;SDS011;10097;50.862;4.696;2023-08-01T01:22:00;6.90;;;2.13;;
19869;SDS011;10097;50.862;4.696;2023-08-01T01:24:28;6.45;;;2.33;;
19869;SDS011;10097;50.862;4.696;2023-08-01T01:26:55;7.32;;;2.47;;
19869;SDS011;10097;50.862;4.696;2023-08-01T01:29:25;8.35;;;2.47;;
19869;SDS011;10097;50.862;4.696;2023-08-01T01:31:51;7.32;;;2.67;;
19869;SDS011;10097;50.862;4.696;2023-08-01T01:34:17;7.07;;;2.50;;
19869;SDS011;10097;50.862;4.696;2023-08-01T01:36:43;9.52;;;2.60;;
19869;SDS011;10097;50.862;4.696;2023-08-01T01:39:09;6.15;;;2.75;;
19869;SDS011;10097;50.862;4.696;2023-08-01T01:41:35;8.88;;;3.28;;
19869;SDS011;10097;50.862;4.696;2023-08-01T01:44:00;7.55;;;3.40;;
19869;SDS011;10097;50.862;4.696;2023-08-01T01:46:26;9.05;;;2.90;;
19869;SDS011;10097;50.862;4.696;2023-08-01T01:48:51;8.32;;;3.13;;
19869;SDS011;10097;50.862;4.696;2023-08-01T01:51:19;10.80;;;3.40;;
19869;SDS011;10097;50.862;4.696;2023-08-01T01:53:46;8.13;;;2.80;;
19869;SDS011;10097;50.862;4.696;2023-08-01T01:56:11;6.72;;;2.75;;
19869;SDS011;10097;50.862;4.696;2023-08-01T01:58:37;8.70;;;3.20;;
19869;SDS011;10097;50.862;4.696;2023-08-01T02:01:03;10.52;;;3.40;;
19869;SDS011;10097;50.862;4.696;2023-08-01T02:03:28;9.05;;;3.35;;
19869;SDS011;10097;50.862;4.696;2023-08-01T02:05:54;8.85;;;4.10;;
19869;SDS011;10097;50.862;4.696;2023-08-01T02:08:19;7.50;;;3.05;;
19869;SDS011;10097;50.862;4.696;2023-08-01T02:10:45;7.53;;;2.90;;
19869;SDS011;10097;50.862;4.696;2023-08-01T02:13:11;8.10;;;3.33;;
19869;SDS011;10097;50.862;4.696;2023-08-01T02:15:36;14.10;;;3.25;;
19869;SDS011;10097;50.862;4.696;2023-08-01T02:18:02;9.60;;;3.33;;
19869;SDS011;10097;50.862;4.696;2023-08-01T02:20:28;9.05;;;3.25;;
19869;SDS011;10097;50.862;4.696;2023-08-01T02:22:54;13.50;;;3.72;;
19869;SDS011;10097;50.862;4.696;2023-08-01T02:25:19;14.30;;;3.55;;
19869;SDS011;10097;50.862;4.696;2023-08-01T02:27:45;10.32;;;3.28;;
19869;SDS011;10097;50.862;4.696;2023-08-01T02:30:11;13.40;;;3.63;;
19869;SDS011;10097;50.862;4.696;2023-08-01T02:32:36;15.18;;;3.83;;
19869;SDS011;10097;50.862;4.696;2023-08-01T02:35:02;14.27;;;3.83;;
19869;SDS011;10097;50.862;4.696;2023-08-01T02:37:28;14.10;;;3.50;;
19869;SDS011;10097;50.862;4.696;2023-08-01T02:39:53;11.65;;;3.63;;
19869;SDS011;10097;50.862;4.696;2023-08-01T02:42:19;10.43;;;3.65;;
19869;SDS011;10097;50.862;4.696;2023-08-01T02:44:45;17.00;;;4.10;;
19869;SDS011;10097;50.862;4.696;2023-08-01T02:47:10;12.98;;;3.80;;
19869;SDS011;10097;50.862;4.696;2023-08-01T02:49:36;11.60;;;3.60;;
19869;SDS011;10097;50.862;4.696;2023-08-01T02:52:01;12.20;;;3.88;;
19869;SDS011;10097;50.862;4.696;2023-08-01T02:54:27;11.45;;;4.00;;
19869;SDS011;10097;50.862;4.696;2023-08-01T02:56:53;13.75;;;4.50;;
19869;SDS011;10097;50.862;4.696;2023-08-01T02:59:19;12.52;;;4.03;;
19869;SDS011;10097;50.862;4.696;2023-08-01T03:01:45;13.48;;;3.63;;
19869;SDS011;10097;50.862;4.696;2023-08-01T03:04:10;13.07;;;4.40;;
19869;SDS011;10097;50.862;4.696;2023-08-01T03:06:39;12.35;;;4.25;;
19869;SDS011;10097;50.862;4.696;2023-08-01T03:09:05;10.35;;;3.90;;
19869;SDS011;10097;50.862;4.696;2023-08-01T03:11:33;13.38;;;4.72;;
19869;SDS011;10097;50.862;4.696;2023-08-01T03:14:00;9.65;;;4.15;;
19869;SDS011;10097;50.862;4.696;2023-08-01T03:16:26;14.68;;;5.43;;
19869;SDS011;10097;50.862;4.696;2023-08-01T03:18:52;15.77;;;4.20;;
19869;SDS011;10097;50.862;4.696;2023-08-01T03:21:17;15.13;;;4.65;;
19869;SDS011;10097;50.862;4.696;2023-08-01T03:23:43;13.70;;;4.78;;
19869;SDS011;10097;50.862;4.696;2023-08-01T03:26:09;14.75;;;4.68;;
19869;SDS011;10097;50.862;4.696;2023-08-01T03:28:34;14.70;;;4.70;;
19869;SDS011;10097;50.862;4.696;2023-08-01T03:31:00;13.93;;;4.75;;
19869;SDS011;10097;50.862;4.696;2023-08-01T03:33:26;15.95;;;4.65;;
19869;SDS011;10097;50.862;4.696;2023-08-01T03:35:52;13.35;;;5.13;;
19869;SDS011;10097;50.862;4.696;2023-08-01T03:38:17;13.77;;;5.55;;
19869;SDS011;10097;50.862;4.696;2023-08-01T03:40:43;17.02;;;5.40;;
19869;SDS011;10097;50.862;4.696;2023-08-01T03:43:09;15.77;;;4.50;;
19869;SDS011;10097;50.862;4.696;2023-08-01T03:45:35;12.48;;;4.75;;
19869;SDS011;10097;50.862;4.696;2023-08-01T03:48:01;16.60;;;4.93;;
19869;SDS011;10097;50.862;4.696;2023-08-01T03:50:27;13.90;;;4.72;;
19869;SDS011;10097;50.862;4.696;2023-08-01T03:52:52;13.90;;;5.00;;
19869;SDS011;10097;50.862;4.696;2023-08-01T03:55:18;14.93;;;5.50;;
19869;SDS011;10097;50.862;4.696;2023-08-01T03:57:43;16.50;;;6.05;;
19869;SDS011;10097;50.862;4.696;2023-08-01T04:00:09;20.02;;;6.20;;
19869;SDS011;10097;50.862;4.696;2023-08-01T04:02:41;14.63;;;5.82;;
19869;SDS011;10097;50.862;4.696;2023-08-01T04:05:07;16.80;;;5.53;;
19869;SDS011;10097;50.862;4.696;2023-08-01T04:07:34;17.02;;;5.18;;
19869;SDS011;10097;50.862;4.696;2023-08-01T04:10:01;13.98;;;4.72;;
19869;SDS011;10097;50.862;4.696;2023-08-01T04:12:27;14.20;;;5.47;;
19869;SDS011;10097;50.862;4.696;2023-08-01T04:14:53;14.98;;;5.60;;
19869;SDS011;10097;50.862;4.696;2023-08-01T04:17:19;15.95;;;5.47;;
19869;SDS011;10097;50.862;4.696;2023-08-01T04:19:44;21.58;;;6.28;;
19869;SDS011;10097;50.862;4.696;2023-08-01T04:22:10;14.82;;;5.07;;
19869;SDS011;10097;50.862;4.696;2023-08-01T04:24:36;15.27;;;5.22;;
19869;SDS011;10097;50.862;4.696;2023-08-01T04:27:01;14.88;;;6.03;;
19869;SDS011;10097;50.862;4.696;2023-08-01T04:29:27;19.25;;;5.53;;
19869;SDS011;10097;50.862;4.696;2023-08-01T04:31:53;15.65;;;6.30;;
19869;SDS011;10097;50.862;4.696;2023-08-01T04:34:18;18.33;;;5.97;;
19869;SDS011;10097;50.862;4.696;2023-08-01T04:36:44;14.57;;;5.55;;
19869;SDS011;10097;50.862;4.696;2023-08-01T04:39:09;16.17;;;5.68;;
19869;SDS011;10097;50.862;4.696;2023-08-01T04:41:35;18.20;;;6.13;;
19869;SDS011;10097;50.862;4.696;2023-08-01T04:44:01;14.95;;;5.70;;
19869;SDS011;10097;50.862;4.696;2023-08-01T04:46:26;15.93;;;6.13;;
19869;SDS011;10097;50.862;4.696;2023-08-01T04:48:52;17.40;;;6.30;;
19869;SDS011;10097;50.862;4.696;2023-08-01T04:51:17;17.75;;;5.95;;
19869;SDS011;10097;50.862;4.696;2023-08-01T04:53:43;18.02;;;5.97;;
19869;SDS011;10097;50.862;4.696;2023-08-01T04:56:09;21.90;;;6.15;;
19869;SDS011;10097;50.862;4.696;2023-08-01T04:58:34;17.30;;;6.85;;
19869;SDS011;10097;50.862;4.696;2023-08-01T05:01:00;16.25;;;5.97;;
19869;SDS011;10097;50.862;4.696;2023-08-01T05:03:25;16.52;;;6.13;;
19869;SDS011;10097;50.862;4.696;2023-08-01T05:05:51;23.73;;;7.28;;
19869;SDS011;10097;50.862;4.696;2023-08-01T05:08:17;19.15;;;6.72;;
19869;SDS011;10097;50.862;4.696;2023-08-01T05:10:42;23.63;;;6.90;;
19869;SDS011;10097;50.862;4.696;2023-08-01T05:13:08;22.02;;;7.00;;
19869;SDS011;10097;50.862;4.696;2023-08-01T05:15:33;14.35;;;6.13;;
19869;SDS011;10097;50.862;4.696;2023-08-01T05:17:59;17.25;;;6.25;;
19869;SDS011;10097;50.862;4.696;2023-08-01T05:20:25;19.33;;;6.40;;
19869;SDS011;10097;50.862;4.696;2023-08-01T05:22:55;17.50;;;6.35;;
19869;SDS011;10097;50.862;4.696;2023-08-01T05:25:24;18.20;;;6.07;;
19869;SDS011;10097;50.862;4.696;2023-08-01T05:27:50;21.45;;;6.05;;
19869;SDS011;10097;50.862;4.696;2023-08-01T05:30:15;23.08;;;6.20;;
19869;SDS011;10097;50.862;4.696;2023-08-01T05:32:41;17.33;;;5.72;;
19869;SDS011;10097;50.862;4.696;2023-08-01T05:35:08;16.50;;;5.75;;
19869;SDS011;10097;50.862;4.696;2023-08-01T05:37:34;18.55;;;6.50;;
19869;SDS011;10097;50.862;4.696;2023-08-01T05:40:00;16.17;;;5.93;;
19869;SDS011;10097;50.862;4.696;2023-08-01T05:42:29;16.63;;;5.57;;
19869;SDS011;10097;50.862;4.696;2023-08-01T05:44:55;22.08;;;6.38;;
19869;SDS011;10097;50.862;4.696;2023-08-01T05:47:26;16.92;;;5.63;;
19869;SDS011;10097;50.862;4.696;2023-08-01T05:49:52;20.15;;;6.15;;
19869;SDS011;10097;50.862;4.696;2023-08-01T05:52:18;16.35;;;5.30;;
19869;SDS011;10097;50.862;4.696;2023-08-01T05:54:43;19.40;;;5.60;;
19869;SDS011;10097;50.862;4.696;2023-08-01T05:57:09;17.52;;;5.55;;
19869;SDS011;10097;50.862;4.696;2023-08-01T05:59:34;15.93;;;6.15;;
19869;SDS011;10097;50.862;4.696;2023-08-01T06:02:00;17.08;;;5.72;;
19869;SDS011;10097;50.862;4.696;2023-08-01T06:04:26;16.80;;;6.10;;
19869;SDS011;10097;50.862;4.696;2023-08-01T06:06:52;14.93;;;5.35;;
19869;SDS011;10097;50.862;4.696;2023-08-01T06:09:17;18.70;;;6.75;;
19869;SDS011;10097;50.862;4.696;2023-08-01T06:11:43;17.98;;;6.15;;
19869;SDS011;10097;50.862;4.696;2023-08-01T06:14:09;18.33;;;5.63;;
19869;SDS011;10097;50.862;4.696;2023-08-01T06:16:35;18.05;;;5.65;;
19869;SDS011;10097;50.862;4.696;2023-08-01T06:19:01;17.83;;;6.15;;
19869;SDS011;10097;50.862;4.696;2023-08-01T06:21:27;14.88;;;5.47;;
19869;SDS011;10097;50.862;4.696;2023-08-01T06:23:53;17.30;;;5.80;;
19869;SDS011;10097;50.862;4.696;2023-08-01T06:26:19;17.48;;;5.55;;
19869;SDS011;10097;50.862;4.696;2023-08-01T06:28:44;14.45;;;4.93;;
19869;SDS011;10097;50.862;4.696;2023-08-01T06:31:10;14.20;;;5.45;;
19869;SDS011;10097;50.862;4.696;2023-08-01T06:33:36;15.23;;;5.13;;
19869;SDS011;10097;50.862;4.696;2023-08-01T06:36:01;16.63;;;5.30;;
19869;SDS011;10097;50.862;4.696;2023-08-01T06:38:27;14.65;;;5.10;;
19869;SDS011;10097;50.862;4.696;2023-08-01T06:40:53;21.27;;;5.38;;
19869;SDS011;10097;50.862;4.696;2023-08-01T06:43:19;13.77;;;5.10;;
19869;SDS011;10097;50.862;4.696;2023-08-01T06:45:44;17.25;;;5.25;;
19869;SDS011;10097;50.862;4.696;2023-08-01T06:48:10;15.52;;;4.90;;
19869;SDS011;10097;50.862;4.696;2023-08-01T06:50:35;16.35;;;4.80;;
19869;SDS011;10097;50.862;4.696;2023-08-01T06:53:01;15.13;;;4.85;;
19869;SDS011;10097;50.862;4.696;2023-08-01T06:55:27;15.90;;;5.40;;
19869;SDS011;10097;50.862;4.696;2023-08-01T06:57:52;15.40;;;5.20;;
19869;SDS011;10097;50.862;4.696;2023-08-01T07:00:18;17.15;;;5.88;;
19869;SDS011;10097;50.862;4.696;2023-08-01T07:02:44;17.48;;;5.60;;
19869;SDS011;10097;50.862;4.696;2023-08-01T07:05:09;13.68;;;5.68;;
19869;SDS011;10097;50.862;4.696;2023-08-01T07:07:35;18.75;;;6.00;;
19869;SDS011;10097;50.862;4.696;2023-08-01T07:10:01;13.65;;;5.35;;
19869;SDS011;10097;50.862;4.696;2023-08-01T07:12:26;15.48;;;5.32;;
19869;SDS011;10097;50.862;4.696;2023-08-01T07:14:52;14.63;;;5.53;;
19869;SDS011;10097;50.862;4.696;2023-08-01T07:17:18;14.90;;;5.50;;
19869;SDS011;10097;50.862;4.696;2023-08-01T07:19:44;14.38;;;5.32;;
19869;SDS011;10097;50.862;4.696;2023-08-01T07:22:09;14.43;;;5.40;;
19869;SDS011;10097;50.862;4.696;2023-08-01T07:24:35;16.50;;;4.97;;
19869;SDS011;10097;50.862;4.696;2023-08-01T07:27:00;18.35;;;5.30;;
19869;SDS011;10097;50.862;4.696;2023-08-01T07:29:26;15.18;;;5.70;;
19869;SDS011;10097;50.862;4.696;2023-08-01T07:31:52;13.45;;;4.35;;
19869;SDS011;10097;50.862;4.696;2023-08-01T07:34:17;17.77;;;5.22;;
19869;SDS011;10097;50.862;4.696;2023-08-01T07:36:43;16.75;;;4.70;;
19869;SDS011;10097;50.862;4.696;2023-08-01T07:39:10;13.18;;;5.13;;
19869;SDS011;10097;50.862;4.696;2023-08-01T07:41:36;12.52;;;3.90;;
19869;SDS011;10097;50.862;4.696;2023-08-01T07:44:02;12.20;;;3.80;;
19869;SDS011;10097;50.862;4.696;2023-08-01T07:46:28;11.75;;;3.78;;
19869;SDS011;10097;50.862;4.696;2023-08-01T07:48:54;14.43;;;4.00;;
19869;SDS011;10097;50.862;4.696;2023-08-01T07:51:19;13.52;;;4.03;;
19869;SDS011;10097;50.862;4.696;2023-08-01T07:53:45;14.50;;;3.83;;
19869;SDS011;10097;50.862;4.696;2023-08-01T07:56:11;15.43;;;3.67;;
19869;SDS011;10097;50.862;4.696;2023-08-01T07:58:36;15.57;;;3.90;;
19869;SDS011;10097;50.862;4.696;2023-08-01T08:01:05;13.88;;;3.90;;
19869;SDS011;10097;50.862;4.696;2023-08-01T08:03:31;11.35;;;4.40;;
19869;SDS011;10097;50.862;4.696;2023-08-01T08:05:57;13.63;;;3.63;;
19869;SDS011;10097;50.862;4.696;2023-08-01T08:08:23;10.98;;;3.75;;
19869;SDS011;10097;50.862;4.696;2023-08-01T08:10:49;10.25;;;3.47;;
19869;SDS011;10097;50.862;4.696;2023-08-01T08:13:15;15.85;;;4.40;;
19869;SDS011;10097;50.862;4.696;2023-08-01T08:15:41;13.25;;;4.35;;
19869;SDS011;10097;50.862;4.696;2023-08-01T08:18:07;12.10;;;4.15;;
19869;SDS011;10097;50.862;4.696;2023-08-01T08:20:33;12.80;;;3.75;;
19869;SDS011;10097;50.862;4.696;2023-08-01T08:23:07;12.55;;;4.25;;
19869;SDS011;10097;50.862;4.696;2023-08-01T08:25:33;12.93;;;4.28;;
19869;SDS011;10097;50.862;4.696;2023-08-01T08:27:59;12.93;;;4.00;;
19869;SDS011;10097;50.862;4.696;2023-08-01T08:30:25;14.73;;;3.92;;
19869;SDS011;10097;50.862;4.696;2023-08-01T08:32:50;15.25;;;4.45;;
19869;SDS011;10097;50.862;4.696;2023-08-01T08:35:16;15.40;;;4.78;;
19869;SDS011;10097;50.862;4.696;2023-08-01T08:37:42;10.50;;;3.65;;
19869;SDS011;10097;50.862;4.696;2023-08-01T08:40:07;11.73;;;3.58;;
19869;SDS011;10097;50.862;4.696;2023-08-01T08:42:33;16.52;;;3.78;;
19869;SDS011;10097;50.862;4.696;2023-08-01T08:45:00;11.68;;;3.28;;
19869;SDS011;10097;50.862;4.696;2023-08-01T08:47:28;18.23;;;3.60;;
19869;SDS011;10097;50.862;4.696;2023-08-01T08:49:56;14.45;;;3.00;;
19869;SDS011;10097;50.862;4.696;2023-08-01T08:52:25;10.02;;;2.67;;
19869;SDS011;10097;50.862;4.696;2023-08-01T08:54:51;11.15;;;3.33;;
19869;SDS011;10097;50.862;4.696;2023-08-01T08:57:18;18.10;;;3.50;;
19869;SDS011;10097;50.862;4.696;2023-08-01T08:59:45;12.52;;;3.45;;
19869;SDS011;10097;50.862;4.696;2023-08-01T09:02:12;9.77;;;3.08;;
19869;SDS011;10097;50.862;4.696;2023-08-01T09:04:41;16.77;;;3.22;;
19869;SDS011;10097;50.862;4.696;2023-08-01T09:07:07;8.27;;;2.95;;
19869;SDS011;10097;50.862;4.696;2023-08-01T09:09:36;12.85;;;2.70;;
19869;SDS011;10097;50.862;4.696;2023-08-01T09:12:02;10.10;;;2.88;;
19869;SDS011;10097;50.862;4.696;2023-08-01T09:14:28;9.18;;;2.25;;
19869;SDS011;10097;50.862;4.696;2023-08-01T09:16:54;8.55;;;2.47;;
19869;SDS011;10097;50.862;4.696;2023-08-01T09:19:24;13.88;;;2.05;;
19869;SDS011;10097;50.862;4.696;2023-08-01T09:21:52;11.00;;;2.65;;
19869;SDS011;10097;50.862;4.696;2023-08-01T09:24:19;11.02;;;2.63;;
19869;SDS011;10097;50.862;4.696;2023-08-01T09:26:46;7.95;;;2.10;;
19869;SDS011;10097;50.862;4.696;2023-08-01T09:29:13;7.30;;;2.42;;
19869;SDS011;10097;50.862;4.696;2023-08-01T09:31:42;10.35;;;2.63;;
19869;SDS011;10097;50.862;4.696;2023-08-01T09:34:21;12.35;;;2.25;;
19869;SDS011;10097;50.862;4.696;2023-08-01T09:36:49;8.75;;;2.35;;
19869;SDS011;10097;50.862;4.696;2023-08-01T09:39:19;8.40;;;2.30;;
19869;SDS011;10097;50.862;4.696;2023-08-01T09:41:46;9.05;;;2.45;;
19869;SDS011;10097;50.862;4.696;2023-08-01T09:44:22;7.60;;;2.38;;
19869;SDS011;10097;50.862;4.696;2023-08-01T09:46:58;11.48;;;2.80;;
19869;SDS011;10097;50.862;4.696;2023-08-01T09:49:31;8.35;;;2.50;;
19869;SDS011;10097;50.862;4.696;2023-08-01T09:51:57;8.05;;;2.72;;
19869;SDS011;10097;50.862;4.696;2023-08-01T09:54:24;11.73;;;2.63;;
19869;SDS011;10097;50.862;4.696;2023-08-01T09:56:51;12.50;;;2.55;;
19869;SDS011;10097;50.862;4.696;2023-08-01T09:59:19;10.55;;;2.22;;
19869;SDS011;10097;50.862;4.696;2023-08-01T10:01:47;11.05;;;2.40;;
19869;SDS011;10097;50.862;4.696;2023-08-01T10:04:24;10.13;;;2.03;;
19869;SDS011;10097;50.862;4.696;2023-08-01T10:06:59;11.27;;;2.17;;
19869;SDS011;10097;50.862;4.696;2023-08-01T10:09:29;7.40;;;1.80;;
19869;SDS011;10097;50.862;4.696;2023-08-01T10:11:57;7.35;;;1.58;;
19869;SDS011;10097;50.862;4.696;2023-08-01T10:14:23;8.50;;;2.10;;
19869;SDS011;10097;50.862;4.696;2023-08-01T10:16:50;9.05;;;1.83;;
19869;SDS011;10097;50.862;4.696;2023-08-01T10:19:17;6.95;;;1.92;;
19869;SDS011;10097;50.862;4.696;2023-08-01T10:21:42;10.57;;;2.13;;
19869;SDS011;10097;50.862;4.696;2023-08-01T10:24:10;9.55;;;2.25;;
19869;SDS011;10097;50.862;4.696;2023-08-01T10:26:38;6.35;;;1.80;;
19869;SDS011;10097;50.862;4.696;2023-08-01T10:29:04;8.38;;;2.05;;
19869;SDS011;10097;50.862;4.696;2023-08-01T10:31:29;6.82;;;1.83;;
19869;SDS011;10097;50.862;4.696;2023-08-01T10:34:03;9.80;;;2.10;;
19869;SDS011;10097;50.862;4.696;2023-08-01T10:36:31;6.93;;;2.00;;
19869;SDS011;10097;50.862;4.696;2023-08-01T10:38:58;8.88;;;2.42;;
19869;SDS011;10097;50.862;4.696;2023-08-01T10:41:31;6.68;;;1.70;;
19869;SDS011;10097;50.862;4.696;2023-08-01T10:44:05;8.43;;;1.60;;
19869;SDS011;10097;50.862;4.696;2023-08-01T10:52:20;11.18;;;2.00;;
19869;SDS011;10097;50.862;4.696;2023-08-01T10:54:58;8.90;;;1.80;;
19869;SDS011;10097;50.862;4.696;2023-08-01T10:57:26;8.80;;;1.95;;
19869;SDS011;10097;50.862;4.696;2023-08-01T10:59:54;6.30;;;1.65;;
19869;SDS011;10097;50.862;4.696;2023-08-01T11:02:21;7.07;;;1.85;;
19869;SDS011;10097;50.862;4.696;2023-08-01T11:04:58;5.88;;;1.63;;
19869;SDS011;10097;50.862;4.696;2023-08-01T11:07:25;8.15;;;1.80;;
19869;SDS011;10097;50.862;4.696;2023-08-01T11:10:07;5.78;;;1.60;;
19869;SDS011;10097;50.862;4.696;2023-08-01T11:12:38;9.82;;;2.38;;
19869;SDS011;10097;50.862;4.696;2023-08-01T11:15:06;6.75;;;1.70;;
19869;SDS011;10097;50.862;4.696;2023-08-01T11:17:37;7.15;;;1.92;;
19869;SDS011;10097;50.862;4.696;2023-08-01T11:20:08;6.90;;;2.08;;
19869;SDS011;10097;50.862;4.696;2023-08-01T11:22:35;7.90;;;2.00;;
19869;SDS011;10097;50.862;4.696;2023-08-01T11:25:02;8.82;;;1.90;;
19869;SDS011;10097;50.862;4.696;2023-08-01T11:27:28;5.95;;;1.60;;
19869;SDS011;10097;50.862;4.696;2023-08-01T11:29:54;11.73;;;2.40;;
19869;SDS011;10097;50.862;4.696;2023-08-01T11:32:20;11.13;;;2.60;;
19869;SDS011;10097;50.862;4.696;2023-08-01T11:34:48;7.20;;;1.77;;
19869;SDS011;10097;50.862;4.696;2023-08-01T11:37:15;8.88;;;2.20;;
19869;SDS011;10097;50.862;4.696;2023-08-01T11:39:43;8.95;;;1.98;;
19869;SDS011;10097;50.862;4.696;2023-08-01T11:42:13;7.43;;;1.75;;
19869;SDS011;10097;50.862;4.696;2023-08-01T11:44:42;7.55;;;1.73;;
19869;SDS011;10097;50.862;4.696;2023-08-01T11:47:16;6.95;;;1.88;;
19869;SDS011;10097;50.862;4.696;2023-08-01T11:49:46;9.63;;;1.67;;
19869;SDS011;10097;50.862;4.696;2023-08-01T11:52:25;6.20;;;1.35;;
19869;SDS011;10097;50.862;4.696;2023-08-01T11:54:52;9.02;;;1.75;;
19869;SDS011;10097;50.862;4.696;2023-08-01T11:57:22;7.40;;;1.90;;
19869;SDS011;10097;50.862;4.696;2023-08-01T11:59:52;9.93;;;1.88;;
19869;SDS011;10097;50.862;4.696;2023-08-01T12:02:26;6.63;;;2.03;;
19869;SDS011;10097;50.862;4.696;2023-08-01T12:04:53;8.52;;;2.28;;
19869;SDS011;10097;50.862;4.696;2023-08-01T12:07:19;8.27;;;1.63;;
19869;SDS011;10097;50.862;4.696;2023-08-01T12:09:56;6.78;;;1.90;;
19869;SDS011;10097;50.862;4.696;2023-08-01T12:12:26;10.90;;;3.78;;
19869;SDS011;10097;50.862;4.696;2023-08-01T12:14:52;12.88;;;4.70;;
19869;SDS011;10097;50.862;4.696;2023-08-01T12:17:19;8.02;;;1.80;;
19869;SDS011;10097;50.862;4.696;2023-08-01T12:19:45;8.60;;;2.40;;
19869;SDS011;10097;50.862;4.696;2023-08-01T12:22:11;16.83;;;4.85;;
19869;SDS011;10097;50.862;4.696;2023-08-01T12:24:37;5.45;;;1.58;;
19869;SDS011;10097;50.862;4.696;2023-08-01T12:27:06;10.75;;;2.28;;
19869;SDS011;10097;50.862;4.696;2023-08-01T12:29:32;9.35;;;1.90;;
19869;SDS011;10097;50.862;4.696;2023-08-01T12:31:58;8.95;;;1.63;;
19869;SDS011;10097;50.862;4.696;2023-08-01T12:34:24;6.43;;;1.50;;
19869;SDS011;10097;50.862;4.696;2023-08-01T12:36:56;5.55;;;1.45;;
19869;SDS011;10097;50.862;4.696;2023-08-01T12:39:21;6.53;;;1.63;;
19869;SDS011;10097;50.862;4.696;2023-08-01T12:41:48;6.10;;;1.77;;
19869;SDS011;10097;50.862;4.696;2023-08-01T12:44:13;7.40;;;1.17;;
19869;SDS011;10097;50.862;4.696;2023-08-01T12:46:41;9.18;;;1.98;;
19869;SDS011;10097;50.862;4.696;2023-08-01T12:49:06;7.00;;;1.60;;
19869;SDS011;10097;50.862;4.696;2023-08-01T12:51:32;5.90;;;1.40;;
19869;SDS011;10097;50.862;4.696;2023-08-01T12:53:57;9.35;;;1.65;;
19869;SDS011;10097;50.862;4.696;2023-08-01T12:56:23;8.43;;;1.55;;
19869;SDS011;10097;50.862;4.696;2023-08-01T12:58:49;9.43;;;2.10;;
19869;SDS011;10097;50.862;4.696;2023-08-01T13:01:14;8.43;;;1.50;;
19869;SDS011;10097;50.862;4.696;2023-08-01T13:03:40;5.85;;;1.63;;
19869;SDS011;10097;50.862;4.696;2023-08-01T13:06:06;11.85;;;1.60;;
19869;SDS011;10097;50.862;4.696;2023-08-01T13:08:34;9.63;;;1.90;;
19869;SDS011;10097;50.862;4.696;2023-08-01T13:11:00;8.15;;;1.98;;
19869;SDS011;10097;50.862;4.696;2023-08-01T13:13:27;5.63;;;1.27;;
19869;SDS011;10097;50.862;4.696;2023-08-01T13:15:53;4.65;;;1.23;;
19869;SDS011;10097;50.862;4.696;2023-08-01T13:18:20;4.28;;;0.95;;
19869;SDS011;10097;50.862;4.696;2023-08-01T13:20:46;6.57;;;1.38;;
19869;SDS011;10097;50.862;4.696;2023-08-01T13:23:12;5.15;;;1.20;;
19869;SDS011;10097;50.862;4.696;2023-08-01T13:25:37;5.63;;;1.30;;
19869;SDS011;10097;50.862;4.696;2023-08-01T13:28:03;6.57;;;1.45;;
19869;SDS011;10097;50.862;4.696;2023-08-01T13:30:29;3.55;;;0.93;;
19869;SDS011;10097;50.862;4.696;2023-08-01T13:32:54;5.72;;;1.40;;
19869;SDS011;10097;50.862;4.696;2023-08-01T13:35:20;8.98;;;1.48;;
19869;SDS011;10097;50.862;4.696;2023-08-01T13:37:46;6.50;;;1.45;;
19869;SDS011;10097;50.862;4.696;2023-08-01T13:40:11;9.85;;;1.42;;
19869;SDS011;10097;50.862;4.696;2023-08-01T13:42:38;7.38;;;1.30;;
19869;SDS011;10097;50.862;4.696;2023-08-01T13:45:05;5.53;;;1.40;;
19869;SDS011;10097;50.862;4.696;2023-08-01T13:47:31;7.20;;;1.58;;
19869;SDS011;10097;50.862;4.696;2023-08-01T13:49:57;10.00;;;1.88;;
19869;SDS011;10097;50.862;4.696;2023-08-01T13:52:23;8.95;;;1.77;;
19869;SDS011;10097;50.862;4.696;2023-08-01T13:54:48;6.43;;;1.63;;
19869;SDS011;10097;50.862;4.696;2023-08-01T13:57:14;6.82;;;1.42;;
19869;SDS011;10097;50.862;4.696;2023-08-01T13:59:39;6.40;;;1.48;;
19869;SDS011;10097;50.862;4.696;2023-08-01T14:02:05;6.57;;;1.58;;
19869;SDS011;10097;50.862;4.696;2023-08-01T14:04:31;7.00;;;1.48;;
19869;SDS011;10097;50.862;4.696;2023-08-01T14:06:56;9.38;;;1.50;;
19869;SDS011;10097;50.862;4.696;2023-08-01T14:09:22;8.25;;;1.52;;
19869;SDS011;10097;50.862;4.696;2023-08-01T14:11:48;7.03;;;1.92;;
19869;SDS011;10097;50.862;4.696;2023-08-01T14:14:13;6.78;;;1.60;;
19869;SDS011;10097;50.862;4.696;2023-08-01T14:16:39;4.75;;;1.10;;
19869;SDS011;10097;50.862;4.696;2023-08-01T14:19:05;6.57;;;1.30;;
19869;SDS011;10097;50.862;4.696;2023-08-01T14:21:33;7.18;;;1.33;;
19869;SDS011;10097;50.862;4.696;2023-08-01T14:23:59;5.72;;;1.40;;
19869;SDS011;10097;50.862;4.696;2023-08-01T14:26:24;8.55;;;1.70;;
19869;SDS011;10097;50.862;4.696;2023-08-01T14:28:50;4.75;;;1.48;;
19869;SDS011;10097;50.862;4.696;2023-08-01T14:31:16;6.20;;;1.50;;
19869;SDS011;10097;50.862;4.696;2023-08-01T14:33:41;4.82;;;1.25;;
19869;SDS011;10097;50.862;4.696;2023-08-01T14:36:08;5.95;;;1.33;;
19869;SDS011;10097;50.862;4.696;2023-08-01T14:38:34;7.45;;;1.52;;
19869;SDS011;10097;50.862;4.696;2023-08-01T14:41:01;8.63;;;1.40;;
19869;SDS011;10097;50.862;4.696;2023-08-01T14:43:27;9.20;;;1.50;;